sensor_id;sensor_type;location;lat;lon;timestamp;P1;durP1;ratioP1;P2;durP2;ratioP2
18726;SDS011;9492;51.888;5.186;2023-07-16T00:02:13;5.70;;;1.70;;
18726;SDS011;9492;51.888;5.186;2023-07-16T00:04:39;5.17;;;1.97;;
18726;SDS011;9492;51.888;5.186;2023-07-16T00:07:05;6.00;;;2.00;;
18726;SDS011;9492;51.888;5.186;2023-07-16T00:09:32;4.70;;;1.60;;
18726;SDS011;9492;51.888;5.186;2023-07-16T00:11:57;5.00;;;2.10;;
18726;SDS011;9492;51.888;5.186;2023-07-16T00:14:23;3.33;;;2.00;;
18726;SDS011;9492;51.888;5.186;2023-07-16T00:16:49;4.10;;;1.63;;
18726;SDS011;9492;51.888;5.186;2023-07-16T00:19:15;4.80;;;2.50;;
18726;SDS011;9492;51.888;5.186;2023-07-16T00:21:41;4.37;;;2.20;;
18726;SDS011;9492;51.888;5.186;2023-07-16T00:24:07;4.90;;;2.03;;
18726;SDS011;9492;51.888;5.186;2023-07-16T00:26:33;5.30;;;1.90;;
18726;SDS011;9492;51.888;5.186;2023-07-16T00:28:59;4.50;;;1.70;;
18726;SDS011;9492;51.888;5.186;2023-07-16T00:31:25;3.77;;;2.00;;
18726;SDS011;9492;51.888;5.186;2023-07-16T00:33:51;3.27;;;1.77;;
18726;SDS011;9492;51.888;5.186;2023-07-16T00:36:17;3.50;;;1.90;;
18726;SDS011;9492;51.888;5.186;2023-07-16T00:38:44;4.57;;;2.37;;
18726;SDS011;9492;51.888;5.186;2023-07-16T00:41:10;4.57;;;2.07;;
18726;SDS011;9492;51.888;5.186;2023-07-16T00:43:36;5.33;;;2.60;;
18726;SDS011;9492;51.888;5.186;2023-07-16T00:46:02;6.10;;;2.57;;
18726;SDS011;9492;51.888;5.186;2023-07-16T00:48:28;5.07;;;2.30;;
18726;SDS011;9492;51.888;5.186;2023-07-16T00:50:55;4.97;;;2.10;;
18726;SDS011;9492;51.888;5.186;2023-07-16T00:53:21;3.13;;;2.37;;
18726;SDS011;9492;51.888;5.186;2023-07-16T00:55:47;7.27;;;2.87;;
18726;SDS011;9492;51.888;5.186;2023-07-16T00:58:13;6.03;;;2.27;;
18726;SDS011;9492;51.888;5.186;2023-07-16T01:00:40;6.53;;;2.20;;
18726;SDS011;9492;51.888;5.186;2023-07-16T01:03:10;4.63;;;2.30;;
18726;SDS011;9492;51.888;5.186;2023-07-16T01:08:17;5.47;;;2.17;;
18726;SDS011;9492;51.888;5.186;2023-07-16T01:10:46;4.93;;;2.07;;
18726;SDS011;9492;51.888;5.186;2023-07-16T01:13:12;6.57;;;2.37;;
18726;SDS011;9492;51.888;5.186;2023-07-16T01:15:38;4.70;;;2.67;;
18726;SDS011;9492;51.888;5.186;2023-07-16T01:18:05;7.23;;;2.63;;
18726;SDS011;9492;51.888;5.186;2023-07-16T01:20:31;5.47;;;2.63;;
18726;SDS011;9492;51.888;5.186;2023-07-16T01:28:41;4.13;;;2.70;;
18726;SDS011;9492;51.888;5.186;2023-07-16T01:31:10;8.73;;;3.10;;
18726;SDS011;9492;51.888;5.186;2023-07-16T01:33:37;6.73;;;2.60;;
18726;SDS011;9492;51.888;5.186;2023-07-16T01:36:03;6.20;;;2.70;;
18726;SDS011;9492;51.888;5.186;2023-07-16T01:38:30;6.07;;;2.83;;
18726;SDS011;9492;51.888;5.186;2023-07-16T01:40:56;12.63;;;3.30;;
18726;SDS011;9492;51.888;5.186;2023-07-16T01:43:22;4.57;;;2.57;;
18726;SDS011;9492;51.888;5.186;2023-07-16T01:45:48;4.20;;;2.50;;
18726;SDS011;9492;51.888;5.186;2023-07-16T01:48:19;5.53;;;2.77;;
18726;SDS011;9492;51.888;5.186;2023-07-16T01:50:50;5.43;;;3.17;;
18726;SDS011;9492;51.888;5.186;2023-07-16T01:53:16;7.97;;;2.30;;
18726;SDS011;9492;51.888;5.186;2023-07-16T01:55:42;10.03;;;3.50;;
18726;SDS011;9492;51.888;5.186;2023-07-16T01:58:08;4.90;;;2.60;;
18726;SDS011;9492;51.888;5.186;2023-07-16T02:00:35;5.13;;;2.70;;
18726;SDS011;9492;51.888;5.186;2023-07-16T02:03:01;6.83;;;2.50;;
18726;SDS011;9492;51.888;5.186;2023-07-16T02:05:28;5.13;;;2.13;;
18726;SDS011;9492;51.888;5.186;2023-07-16T02:07:54;7.93;;;2.87;;
18726;SDS011;9492;51.888;5.186;2023-07-16T02:10:20;5.93;;;2.90;;
18726;SDS011;9492;51.888;5.186;2023-07-16T02:12:46;6.03;;;2.57;;
18726;SDS011;9492;51.888;5.186;2023-07-16T02:15:12;4.50;;;2.37;;
18726;SDS011;9492;51.888;5.186;2023-07-16T02:17:38;4.27;;;2.53;;
18726;SDS011;9492;51.888;5.186;2023-07-16T02:20:04;5.00;;;2.87;;
18726;SDS011;9492;51.888;5.186;2023-07-16T02:22:31;6.70;;;2.80;;
18726;SDS011;9492;51.888;5.186;2023-07-16T02:24:57;6.37;;;2.77;;
18726;SDS011;9492;51.888;5.186;2023-07-16T02:27:23;5.50;;;2.60;;
18726;SDS011;9492;51.888;5.186;2023-07-16T02:29:50;7.80;;;2.50;;
18726;SDS011;9492;51.888;5.186;2023-07-16T02:32:16;9.43;;;3.10;;
18726;SDS011;9492;51.888;5.186;2023-07-16T02:34:42;4.40;;;2.50;;
18726;SDS011;9492;51.888;5.186;2023-07-16T02:37:08;6.50;;;2.83;;
18726;SDS011;9492;51.888;5.186;2023-07-16T02:39:34;5.37;;;2.43;;
18726;SDS011;9492;51.888;5.186;2023-07-16T02:42:00;5.30;;;2.80;;
18726;SDS011;9492;51.888;5.186;2023-07-16T02:44:26;6.80;;;3.27;;
18726;SDS011;9492;51.888;5.186;2023-07-16T02:46:52;5.73;;;2.73;;
18726;SDS011;9492;51.888;5.186;2023-07-16T02:49:18;5.07;;;2.30;;
18726;SDS011;9492;51.888;5.186;2023-07-16T02:51:44;5.40;;;2.47;;
18726;SDS011;9492;51.888;5.186;2023-07-16T02:54:10;6.77;;;2.53;;
18726;SDS011;9492;51.888;5.186;2023-07-16T02:56:36;6.40;;;3.77;;
18726;SDS011;9492;51.888;5.186;2023-07-16T02:59:02;6.50;;;2.53;;
18726;SDS011;9492;51.888;5.186;2023-07-16T03:01:28;6.50;;;2.63;;
18726;SDS011;9492;51.888;5.186;2023-07-16T03:03:54;7.30;;;2.93;;
18726;SDS011;9492;51.888;5.186;2023-07-16T03:06:20;7.33;;;2.70;;
18726;SDS011;9492;51.888;5.186;2023-07-16T03:08:46;7.83;;;2.47;;
18726;SDS011;9492;51.888;5.186;2023-07-16T03:11:13;4.47;;;2.70;;
18726;SDS011;9492;51.888;5.186;2023-07-16T03:13:39;4.83;;;2.43;;
18726;SDS011;9492;51.888;5.186;2023-07-16T03:16:05;7.37;;;2.90;;
18726;SDS011;9492;51.888;5.186;2023-07-16T03:18:32;6.10;;;2.33;;
18726;SDS011;9492;51.888;5.186;2023-07-16T03:20:58;8.50;;;3.17;;
18726;SDS011;9492;51.888;5.186;2023-07-16T03:23:24;4.40;;;2.60;;
18726;SDS011;9492;51.888;5.186;2023-07-16T03:25:51;7.10;;;2.90;;
18726;SDS011;9492;51.888;5.186;2023-07-16T03:28:17;5.03;;;2.17;;
18726;SDS011;9492;51.888;5.186;2023-07-16T03:30:47;9.53;;;2.97;;
18726;SDS011;9492;51.888;5.186;2023-07-16T03:33:13;7.03;;;2.90;;
18726;SDS011;9492;51.888;5.186;2023-07-16T03:35:41;7.17;;;2.60;;
18726;SDS011;9492;51.888;5.186;2023-07-16T03:38:07;7.70;;;2.90;;
18726;SDS011;9492;51.888;5.186;2023-07-16T03:40:33;6.23;;;3.20;;
18726;SDS011;9492;51.888;5.186;2023-07-16T03:43:00;3.40;;;2.20;;
18726;SDS011;9492;51.888;5.186;2023-07-16T03:45:26;11.63;;;3.40;;
18726;SDS011;9492;51.888;5.186;2023-07-16T03:47:52;5.33;;;2.83;;
18726;SDS011;9492;51.888;5.186;2023-07-16T03:50:18;9.27;;;3.10;;
18726;SDS011;9492;51.888;5.186;2023-07-16T03:52:44;6.77;;;3.37;;
18726;SDS011;9492;51.888;5.186;2023-07-16T03:55:10;7.63;;;3.10;;
18726;SDS011;9492;51.888;5.186;2023-07-16T03:57:36;5.70;;;2.67;;
18726;SDS011;9492;51.888;5.186;2023-07-16T04:00:03;8.10;;;3.80;;
18726;SDS011;9492;51.888;5.186;2023-07-16T04:02:31;7.00;;;2.73;;
18726;SDS011;9492;51.888;5.186;2023-07-16T04:04:57;6.90;;;3.30;;
18726;SDS011;9492;51.888;5.186;2023-07-16T04:07:23;8.83;;;3.87;;
18726;SDS011;9492;51.888;5.186;2023-07-16T04:09:49;7.37;;;3.50;;
18726;SDS011;9492;51.888;5.186;2023-07-16T04:12:15;9.37;;;3.83;;
18726;SDS011;9492;51.888;5.186;2023-07-16T04:14:41;6.47;;;3.57;;
18726;SDS011;9492;51.888;5.186;2023-07-16T04:17:07;5.37;;;3.03;;
18726;SDS011;9492;51.888;5.186;2023-07-16T04:19:33;5.83;;;3.33;;
18726;SDS011;9492;51.888;5.186;2023-07-16T04:21:59;6.00;;;3.17;;
18726;SDS011;9492;51.888;5.186;2023-07-16T04:24:25;7.63;;;3.50;;
18726;SDS011;9492;51.888;5.186;2023-07-16T04:26:52;4.07;;;2.80;;
18726;SDS011;9492;51.888;5.186;2023-07-16T04:29:18;4.40;;;2.70;;
18726;SDS011;9492;51.888;5.186;2023-07-16T04:31:44;3.43;;;2.70;;
18726;SDS011;9492;51.888;5.186;2023-07-16T04:34:10;3.67;;;2.90;;
18726;SDS011;9492;51.888;5.186;2023-07-16T04:36:36;6.33;;;2.97;;
18726;SDS011;9492;51.888;5.186;2023-07-16T04:39:02;5.97;;;2.83;;
18726;SDS011;9492;51.888;5.186;2023-07-16T04:41:29;7.20;;;3.27;;
18726;SDS011;9492;51.888;5.186;2023-07-16T04:43:55;4.73;;;3.17;;
18726;SDS011;9492;51.888;5.186;2023-07-16T04:46:21;6.70;;;3.10;;
18726;SDS011;9492;51.888;5.186;2023-07-16T04:48:47;6.83;;;3.57;;
18726;SDS011;9492;51.888;5.186;2023-07-16T04:51:13;5.23;;;3.33;;
18726;SDS011;9492;51.888;5.186;2023-07-16T04:53:39;4.97;;;2.63;;
18726;SDS011;9492;51.888;5.186;2023-07-16T04:56:10;3.67;;;3.03;;
18726;SDS011;9492;51.888;5.186;2023-07-16T04:58:37;10.20;;;3.67;;
18726;SDS011;9492;51.888;5.186;2023-07-16T05:01:03;6.40;;;3.37;;
18726;SDS011;9492;51.888;5.186;2023-07-16T05:03:29;6.37;;;3.67;;
18726;SDS011;9492;51.888;5.186;2023-07-16T05:05:55;6.80;;;3.90;;
18726;SDS011;9492;51.888;5.186;2023-07-16T05:08:22;4.37;;;2.70;;
18726;SDS011;9492;51.888;5.186;2023-07-16T05:10:48;6.73;;;3.47;;
18726;SDS011;9492;51.888;5.186;2023-07-16T05:13:14;5.17;;;3.93;;
18726;SDS011;9492;51.888;5.186;2023-07-16T05:15:40;6.23;;;3.37;;
18726;SDS011;9492;51.888;5.186;2023-07-16T05:18:06;5.37;;;3.23;;
18726;SDS011;9492;51.888;5.186;2023-07-16T05:20:32;6.83;;;3.90;;
18726;SDS011;9492;51.888;5.186;2023-07-16T05:22:58;4.93;;;3.20;;
18726;SDS011;9492;51.888;5.186;2023-07-16T05:25:24;6.30;;;3.90;;
18726;SDS011;9492;51.888;5.186;2023-07-16T05:27:50;6.50;;;3.90;;
18726;SDS011;9492;51.888;5.186;2023-07-16T05:30:16;7.67;;;3.60;;
18726;SDS011;9492;51.888;5.186;2023-07-16T05:32:42;6.33;;;3.80;;
18726;SDS011;9492;51.888;5.186;2023-07-16T05:35:08;5.07;;;3.00;;
18726;SDS011;9492;51.888;5.186;2023-07-16T05:37:34;7.03;;;4.13;;
18726;SDS011;9492;51.888;5.186;2023-07-16T05:40:00;7.30;;;3.67;;
18726;SDS011;9492;51.888;5.186;2023-07-16T05:42:28;5.50;;;4.00;;
18726;SDS011;9492;51.888;5.186;2023-07-16T05:44:54;5.23;;;3.37;;
18726;SDS011;9492;51.888;5.186;2023-07-16T05:47:20;6.50;;;4.47;;
18726;SDS011;9492;51.888;5.186;2023-07-16T05:49:46;6.73;;;3.83;;
18726;SDS011;9492;51.888;5.186;2023-07-16T05:52:12;5.57;;;3.90;;
18726;SDS011;9492;51.888;5.186;2023-07-16T05:54:38;5.03;;;3.67;;
18726;SDS011;9492;51.888;5.186;2023-07-16T05:57:04;7.43;;;3.87;;
18726;SDS011;9492;51.888;5.186;2023-07-16T05:59:30;8.00;;;4.23;;
18726;SDS011;9492;51.888;5.186;2023-07-16T06:02:02;9.13;;;3.90;;
18726;SDS011;9492;51.888;5.186;2023-07-16T06:04:28;5.40;;;4.10;;
18726;SDS011;9492;51.888;5.186;2023-07-16T06:06:54;6.57;;;3.73;;
18726;SDS011;9492;51.888;5.186;2023-07-16T06:09:20;4.97;;;3.60;;
18726;SDS011;9492;51.888;5.186;2023-07-16T06:11:46;7.03;;;4.10;;
18726;SDS011;9492;51.888;5.186;2023-07-16T06:14:12;5.63;;;4.07;;
18726;SDS011;9492;51.888;5.186;2023-07-16T06:16:38;5.73;;;3.73;;
18726;SDS011;9492;51.888;5.186;2023-07-16T06:19:05;7.87;;;3.70;;
18726;SDS011;9492;51.888;5.186;2023-07-16T06:21:31;8.63;;;4.20;;
18726;SDS011;9492;51.888;5.186;2023-07-16T06:23:56;7.90;;;4.00;;
18726;SDS011;9492;51.888;5.186;2023-07-16T06:26:22;7.17;;;4.37;;
18726;SDS011;9492;51.888;5.186;2023-07-16T06:28:48;6.63;;;3.80;;
18726;SDS011;9492;51.888;5.186;2023-07-16T06:31:18;6.27;;;3.40;;
18726;SDS011;9492;51.888;5.186;2023-07-16T06:33:44;5.60;;;3.37;;
18726;SDS011;9492;51.888;5.186;2023-07-16T06:36:14;7.53;;;3.90;;
18726;SDS011;9492;51.888;5.186;2023-07-16T06:38:40;6.97;;;3.73;;
18726;SDS011;9492;51.888;5.186;2023-07-16T06:41:06;7.60;;;4.13;;
18726;SDS011;9492;51.888;5.186;2023-07-16T06:43:32;7.63;;;4.60;;
18726;SDS011;9492;51.888;5.186;2023-07-16T06:45:58;4.13;;;3.60;;
18726;SDS011;9492;51.888;5.186;2023-07-16T06:48:24;6.53;;;4.07;;
18726;SDS011;9492;51.888;5.186;2023-07-16T06:50:50;8.00;;;4.20;;
18726;SDS011;9492;51.888;5.186;2023-07-16T06:53:16;8.13;;;4.07;;
18726;SDS011;9492;51.888;5.186;2023-07-16T06:55:42;7.53;;;4.07;;
18726;SDS011;9492;51.888;5.186;2023-07-16T06:58:13;6.97;;;4.07;;
18726;SDS011;9492;51.888;5.186;2023-07-16T07:00:40;7.30;;;4.03;;
18726;SDS011;9492;51.888;5.186;2023-07-16T07:03:06;5.23;;;3.87;;
18726;SDS011;9492;51.888;5.186;2023-07-16T07:05:35;6.13;;;4.10;;
18726;SDS011;9492;51.888;5.186;2023-07-16T07:08:02;7.70;;;4.77;;
18726;SDS011;9492;51.888;5.186;2023-07-16T07:10:28;8.70;;;4.17;;
18726;SDS011;9492;51.888;5.186;2023-07-16T07:12:54;5.40;;;3.90;;
18726;SDS011;9492;51.888;5.186;2023-07-16T07:15:20;8.77;;;5.13;;
18726;SDS011;9492;51.888;5.186;2023-07-16T07:17:46;7.13;;;3.93;;
18726;SDS011;9492;51.888;5.186;2023-07-16T07:20:13;7.03;;;4.37;;
18726;SDS011;9492;51.888;5.186;2023-07-16T07:22:39;9.37;;;4.17;;
18726;SDS011;9492;51.888;5.186;2023-07-16T07:25:05;8.27;;;4.47;;
18726;SDS011;9492;51.888;5.186;2023-07-16T07:27:31;6.77;;;3.90;;
18726;SDS011;9492;51.888;5.186;2023-07-16T07:29:57;8.67;;;4.83;;
18726;SDS011;9492;51.888;5.186;2023-07-16T07:32:23;6.03;;;4.30;;
18726;SDS011;9492;51.888;5.186;2023-07-16T07:34:49;8.23;;;4.53;;
18726;SDS011;9492;51.888;5.186;2023-07-16T07:37:15;8.43;;;4.67;;
18726;SDS011;9492;51.888;5.186;2023-07-16T07:39:42;7.80;;;4.23;;
18726;SDS011;9492;51.888;5.186;2023-07-16T07:42:08;7.40;;;4.30;;
18726;SDS011;9492;51.888;5.186;2023-07-16T07:44:35;8.20;;;4.13;;
18726;SDS011;9492;51.888;5.186;2023-07-16T07:47:01;6.03;;;4.07;;
18726;SDS011;9492;51.888;5.186;2023-07-16T07:49:26;10.60;;;4.60;;
18726;SDS011;9492;51.888;5.186;2023-07-16T07:51:52;6.17;;;4.00;;
18726;SDS011;9492;51.888;5.186;2023-07-16T07:54:20;8.83;;;4.67;;
18726;SDS011;9492;51.888;5.186;2023-07-16T07:56:46;6.93;;;4.63;;
18726;SDS011;9492;51.888;5.186;2023-07-16T07:59:12;8.53;;;4.30;;
18726;SDS011;9492;51.888;5.186;2023-07-16T08:01:38;8.43;;;4.77;;
18726;SDS011;9492;51.888;5.186;2023-07-16T08:04:04;7.23;;;4.20;;
18726;SDS011;9492;51.888;5.186;2023-07-16T08:06:30;9.43;;;4.40;;
18726;SDS011;9492;51.888;5.186;2023-07-16T08:08:56;8.30;;;4.43;;
18726;SDS011;9492;51.888;5.186;2023-07-16T08:11:22;6.30;;;4.80;;
18726;SDS011;9492;51.888;5.186;2023-07-16T08:13:48;7.27;;;4.73;;
18726;SDS011;9492;51.888;5.186;2023-07-16T08:16:14;11.50;;;5.07;;
18726;SDS011;9492;51.888;5.186;2023-07-16T08:18:40;8.30;;;4.53;;
18726;SDS011;9492;51.888;5.186;2023-07-16T08:21:06;9.77;;;4.50;;
18726;SDS011;9492;51.888;5.186;2023-07-16T08:23:32;7.53;;;3.97;;
18726;SDS011;9492;51.888;5.186;2023-07-16T08:25:58;11.47;;;5.07;;
18726;SDS011;9492;51.888;5.186;2023-07-16T08:28:24;7.30;;;4.57;;
18726;SDS011;9492;51.888;5.186;2023-07-16T08:30:50;7.83;;;4.27;;
18726;SDS011;9492;51.888;5.186;2023-07-16T08:33:16;11.07;;;5.17;;
18726;SDS011;9492;51.888;5.186;2023-07-16T08:35:42;9.47;;;4.70;;
18726;SDS011;9492;51.888;5.186;2023-07-16T08:38:08;6.70;;;4.47;;
18726;SDS011;9492;51.888;5.186;2023-07-16T08:40:38;5.63;;;4.00;;
18726;SDS011;9492;51.888;5.186;2023-07-16T08:43:05;6.90;;;4.63;;
18726;SDS011;9492;51.888;5.186;2023-07-16T08:45:40;8.17;;;5.13;;
18726;SDS011;9492;51.888;5.186;2023-07-16T08:48:07;8.00;;;5.03;;
18726;SDS011;9492;51.888;5.186;2023-07-16T08:50:34;7.43;;;4.70;;
18726;SDS011;9492;51.888;5.186;2023-07-16T08:53:01;7.63;;;4.30;;
18726;SDS011;9492;51.888;5.186;2023-07-16T08:55:29;10.93;;;4.70;;
18726;SDS011;9492;51.888;5.186;2023-07-16T08:57:56;9.63;;;4.97;;
18726;SDS011;9492;51.888;5.186;2023-07-16T09:00:23;7.43;;;4.90;;
18726;SDS011;9492;51.888;5.186;2023-07-16T09:02:51;9.83;;;5.00;;
18726;SDS011;9492;51.888;5.186;2023-07-16T09:05:19;12.50;;;5.33;;
18726;SDS011;9492;51.888;5.186;2023-07-16T09:07:46;6.63;;;5.13;;
18726;SDS011;9492;51.888;5.186;2023-07-16T09:10:12;6.23;;;4.63;;
18726;SDS011;9492;51.888;5.186;2023-07-16T09:12:44;6.73;;;4.73;;
18726;SDS011;9492;51.888;5.186;2023-07-16T09:15:11;9.50;;;4.20;;
18726;SDS011;9492;51.888;5.186;2023-07-16T09:17:37;6.23;;;4.30;;
18726;SDS011;9492;51.888;5.186;2023-07-16T09:20:03;5.87;;;3.97;;
18726;SDS011;9492;51.888;5.186;2023-07-16T09:22:33;9.00;;;4.53;;
18726;SDS011;9492;51.888;5.186;2023-07-16T09:25:00;6.33;;;4.13;;
18726;SDS011;9492;51.888;5.186;2023-07-16T09:27:30;8.77;;;4.17;;
18726;SDS011;9492;51.888;5.186;2023-07-16T09:29:56;8.63;;;4.27;;
18726;SDS011;9492;51.888;5.186;2023-07-16T09:32:32;6.87;;;4.30;;
18726;SDS011;9492;51.888;5.186;2023-07-16T09:34:58;9.17;;;5.10;;
18726;SDS011;9492;51.888;5.186;2023-07-16T09:37:24;9.73;;;4.90;;
18726;SDS011;9492;51.888;5.186;2023-07-16T09:39:50;6.80;;;3.80;;
18726;SDS011;9492;51.888;5.186;2023-07-16T09:42:17;7.87;;;4.73;;
18726;SDS011;9492;51.888;5.186;2023-07-16T09:44:44;10.57;;;4.10;;
18726;SDS011;9492;51.888;5.186;2023-07-16T09:47:10;11.20;;;4.43;;
18726;SDS011;9492;51.888;5.186;2023-07-16T09:49:36;5.97;;;4.80;;
18726;SDS011;9492;51.888;5.186;2023-07-16T09:52:02;5.47;;;3.57;;
18726;SDS011;9492;51.888;5.186;2023-07-16T09:54:30;5.80;;;4.23;;
18726;SDS011;9492;51.888;5.186;2023-07-16T09:56:57;6.17;;;3.87;;
18726;SDS011;9492;51.888;5.186;2023-07-16T09:59:24;6.40;;;4.10;;
18726;SDS011;9492;51.888;5.186;2023-07-16T10:01:50;10.70;;;4.37;;
18726;SDS011;9492;51.888;5.186;2023-07-16T10:04:18;6.30;;;4.23;;
18726;SDS011;9492;51.888;5.186;2023-07-16T10:06:51;7.37;;;4.60;;
18726;SDS011;9492;51.888;5.186;2023-07-16T10:12:11;12.40;;;4.67;;
18726;SDS011;9492;51.888;5.186;2023-07-16T10:14:46;5.67;;;4.17;;
18726;SDS011;9492;51.888;5.186;2023-07-16T10:17:13;6.37;;;4.40;;
18726;SDS011;9492;51.888;5.186;2023-07-16T10:20:12;9.57;;;4.90;;
18726;SDS011;9492;51.888;5.186;2023-07-16T10:22:38;5.27;;;3.63;;
18726;SDS011;9492;51.888;5.186;2023-07-16T10:25:26;8.03;;;4.13;;
18726;SDS011;9492;51.888;5.186;2023-07-16T10:27:51;5.87;;;4.27;;
18726;SDS011;9492;51.888;5.186;2023-07-16T10:30:18;6.87;;;4.80;;
18726;SDS011;9492;51.888;5.186;2023-07-16T10:32:44;6.47;;;4.47;;
18726;SDS011;9492;51.888;5.186;2023-07-16T10:35:11;8.90;;;4.77;;
18726;SDS011;9492;51.888;5.186;2023-07-16T10:37:37;9.10;;;4.80;;
18726;SDS011;9492;51.888;5.186;2023-07-16T10:40:04;7.63;;;4.30;;
18726;SDS011;9492;51.888;5.186;2023-07-16T10:42:31;11.13;;;5.97;;
18726;SDS011;9492;51.888;5.186;2023-07-16T10:45:01;6.87;;;4.07;;
18726;SDS011;9492;51.888;5.186;2023-07-16T10:49:56;7.20;;;3.97;;
18726;SDS011;9492;51.888;5.186;2023-07-16T10:52:23;6.03;;;4.30;;
18726;SDS011;9492;51.888;5.186;2023-07-16T10:54:50;9.03;;;3.73;;
18726;SDS011;9492;51.888;5.186;2023-07-16T10:57:25;8.70;;;3.77;;
18726;SDS011;9492;51.888;5.186;2023-07-16T10:59:52;9.10;;;4.37;;
18726;SDS011;9492;51.888;5.186;2023-07-16T11:02:18;8.63;;;4.00;;
18726;SDS011;9492;51.888;5.186;2023-07-16T11:04:45;11.63;;;4.70;;
18726;SDS011;9492;51.888;5.186;2023-07-16T11:07:11;4.70;;;3.77;;
18726;SDS011;9492;51.888;5.186;2023-07-16T11:09:41;10.47;;;4.50;;
18726;SDS011;9492;51.888;5.186;2023-07-16T11:12:09;10.77;;;4.90;;
18726;SDS011;9492;51.888;5.186;2023-07-16T11:14:35;11.57;;;4.37;;
18726;SDS011;9492;51.888;5.186;2023-07-16T11:17:04;6.07;;;4.10;;
18726;SDS011;9492;51.888;5.186;2023-07-16T11:19:32;6.73;;;4.17;;
18726;SDS011;9492;51.888;5.186;2023-07-16T11:21:59;8.57;;;4.50;;
18726;SDS011;9492;51.888;5.186;2023-07-16T11:24:25;7.57;;;4.47;;
18726;SDS011;9492;51.888;5.186;2023-07-16T11:26:52;7.63;;;3.90;;
18726;SDS011;9492;51.888;5.186;2023-07-16T11:29:18;6.70;;;5.00;;
18726;SDS011;9492;51.888;5.186;2023-07-16T11:31:48;6.37;;;4.43;;
18726;SDS011;9492;51.888;5.186;2023-07-16T11:34:14;8.80;;;4.17;;
18726;SDS011;9492;51.888;5.186;2023-07-16T11:36:41;6.13;;;3.53;;
18726;SDS011;9492;51.888;5.186;2023-07-16T11:39:07;8.00;;;4.23;;
18726;SDS011;9492;51.888;5.186;2023-07-16T11:41:33;6.80;;;4.23;;
18726;SDS011;9492;51.888;5.186;2023-07-16T11:44:02;7.20;;;3.80;;
18726;SDS011;9492;51.888;5.186;2023-07-16T11:46:32;9.43;;;4.47;;
18726;SDS011;9492;51.888;5.186;2023-07-16T11:48:58;6.80;;;3.70;;
18726;SDS011;9492;51.888;5.186;2023-07-16T11:51:24;5.10;;;3.57;;
18726;SDS011;9492;51.888;5.186;2023-07-16T11:53:50;6.10;;;3.37;;
18726;SDS011;9492;51.888;5.186;2023-07-16T11:56:16;6.23;;;3.90;;
18726;SDS011;9492;51.888;5.186;2023-07-16T11:58:42;4.97;;;2.63;;
18726;SDS011;9492;51.888;5.186;2023-07-16T12:01:08;6.17;;;2.70;;
18726;SDS011;9492;51.888;5.186;2023-07-16T12:03:34;4.10;;;2.40;;
18726;SDS011;9492;51.888;5.186;2023-07-16T12:06:00;3.00;;;2.37;;
18726;SDS011;9492;51.888;5.186;2023-07-16T12:08:26;5.03;;;2.93;;
18726;SDS011;9492;51.888;5.186;2023-07-16T12:10:52;5.47;;;2.63;;
18726;SDS011;9492;51.888;5.186;2023-07-16T12:13:19;5.73;;;3.23;;
18726;SDS011;9492;51.888;5.186;2023-07-16T12:15:45;4.57;;;2.70;;
18726;SDS011;9492;51.888;5.186;2023-07-16T12:18:11;3.53;;;2.57;;
18726;SDS011;9492;51.888;5.186;2023-07-16T12:20:37;5.17;;;3.27;;
18726;SDS011;9492;51.888;5.186;2023-07-16T12:23:04;3.47;;;3.13;;
18726;SDS011;9492;51.888;5.186;2023-07-16T12:25:30;8.53;;;3.17;;
18726;SDS011;9492;51.888;5.186;2023-07-16T12:27:56;4.90;;;2.80;;
18726;SDS011;9492;51.888;5.186;2023-07-16T12:30:23;3.40;;;3.10;;
18726;SDS011;9492;51.888;5.186;2023-07-16T12:32:49;7.03;;;2.70;;
18726;SDS011;9492;51.888;5.186;2023-07-16T12:35:16;2.77;;;2.50;;
18726;SDS011;9492;51.888;5.186;2023-07-16T12:37:42;4.10;;;2.57;;
18726;SDS011;9492;51.888;5.186;2023-07-16T12:40:08;5.67;;;2.33;;
18726;SDS011;9492;51.888;5.186;2023-07-16T12:42:34;4.90;;;2.20;;
18726;SDS011;9492;51.888;5.186;2023-07-16T12:45:01;5.17;;;2.57;;
18726;SDS011;9492;51.888;5.186;2023-07-16T12:47:27;5.53;;;2.33;;
18726;SDS011;9492;51.888;5.186;2023-07-16T12:49:53;4.93;;;2.27;;
18726;SDS011;9492;51.888;5.186;2023-07-16T12:52:19;3.73;;;2.13;;
18726;SDS011;9492;51.888;5.186;2023-07-16T12:54:45;3.40;;;1.87;;
18726;SDS011;9492;51.888;5.186;2023-07-16T12:57:11;4.60;;;2.20;;
18726;SDS011;9492;51.888;5.186;2023-07-16T12:59:37;4.77;;;1.83;;
18726;SDS011;9492;51.888;5.186;2023-07-16T13:02:03;3.23;;;2.20;;
18726;SDS011;9492;51.888;5.186;2023-07-16T13:04:29;2.60;;;1.77;;
18726;SDS011;9492;51.888;5.186;2023-07-16T13:06:55;3.43;;;2.23;;
18726;SDS011;9492;51.888;5.186;2023-07-16T13:09:21;5.27;;;2.40;;
18726;SDS011;9492;51.888;5.186;2023-07-16T13:11:48;7.47;;;2.87;;
18726;SDS011;9492;51.888;5.186;2023-07-16T13:14:13;4.73;;;2.50;;
18726;SDS011;9492;51.888;5.186;2023-07-16T13:16:39;4.07;;;2.60;;
18726;SDS011;9492;51.888;5.186;2023-07-16T13:19:05;4.13;;;2.13;;
18726;SDS011;9492;51.888;5.186;2023-07-16T13:21:31;4.27;;;2.90;;
18726;SDS011;9492;51.888;5.186;2023-07-16T13:23:57;6.90;;;2.77;;
18726;SDS011;9492;51.888;5.186;2023-07-16T13:26:23;3.13;;;2.27;;
18726;SDS011;9492;51.888;5.186;2023-07-16T13:28:49;3.90;;;1.73;;
18726;SDS011;9492;51.888;5.186;2023-07-16T13:31:17;2.33;;;1.73;;
18726;SDS011;9492;51.888;5.186;2023-07-16T13:33:43;4.60;;;1.67;;
18726;SDS011;9492;51.888;5.186;2023-07-16T13:36:09;4.23;;;1.70;;
18726;SDS011;9492;51.888;5.186;2023-07-16T13:38:35;1.97;;;1.17;;
18726;SDS011;9492;51.888;5.186;2023-07-16T13:41:01;4.17;;;1.50;;
18726;SDS011;9492;51.888;5.186;2023-07-16T13:43:27;3.23;;;1.40;;
18726;SDS011;9492;51.888;5.186;2023-07-16T13:45:53;6.90;;;1.43;;
18726;SDS011;9492;51.888;5.186;2023-07-16T13:48:19;3.37;;;1.50;;
18726;SDS011;9492;51.888;5.186;2023-07-16T13:50:45;3.60;;;1.50;;
18726;SDS011;9492;51.888;5.186;2023-07-16T13:53:11;2.83;;;1.37;;
18726;SDS011;9492;51.888;5.186;2023-07-16T13:55:38;1.33;;;1.00;;
18726;SDS011;9492;51.888;5.186;2023-07-16T13:58:04;4.03;;;1.60;;
18726;SDS011;9492;51.888;5.186;2023-07-16T14:00:30;4.90;;;2.00;;
18726;SDS011;9492;51.888;5.186;2023-07-16T14:02:56;5.80;;;1.60;;
18726;SDS011;9492;51.888;5.186;2023-07-16T14:05:22;1.37;;;1.03;;
18726;SDS011;9492;51.888;5.186;2023-07-16T14:07:48;3.80;;;1.50;;
18726;SDS011;9492;51.888;5.186;2023-07-16T14:10:15;5.27;;;1.87;;
18726;SDS011;9492;51.888;5.186;2023-07-16T14:12:41;2.80;;;1.60;;
18726;SDS011;9492;51.888;5.186;2023-07-16T14:15:08;5.80;;;1.80;;
18726;SDS011;9492;51.888;5.186;2023-07-16T14:17:34;3.97;;;1.70;;
18726;SDS011;9492;51.888;5.186;2023-07-16T14:20:00;1.97;;;1.20;;
18726;SDS011;9492;51.888;5.186;2023-07-16T14:22:26;6.00;;;1.97;;
18726;SDS011;9492;51.888;5.186;2023-07-16T14:24:52;2.07;;;1.50;;
18726;SDS011;9492;51.888;5.186;2023-07-16T14:27:18;3.53;;;1.40;;
18726;SDS011;9492;51.888;5.186;2023-07-16T14:29:45;1.60;;;1.47;;
18726;SDS011;9492;51.888;5.186;2023-07-16T14:32:11;4.13;;;1.40;;
18726;SDS011;9492;51.888;5.186;2023-07-16T14:34:38;4.70;;;1.90;;
18726;SDS011;9492;51.888;5.186;2023-07-16T14:37:04;3.83;;;1.60;;
18726;SDS011;9492;51.888;5.186;2023-07-16T14:39:30;4.47;;;1.70;;
18726;SDS011;9492;51.888;5.186;2023-07-16T14:41:56;2.93;;;1.60;;
18726;SDS011;9492;51.888;5.186;2023-07-16T14:44:22;2.80;;;1.40;;
18726;SDS011;9492;51.888;5.186;2023-07-16T14:46:48;2.77;;;1.40;;
18726;SDS011;9492;51.888;5.186;2023-07-16T14:49:14;3.30;;;1.70;;
18726;SDS011;9492;51.888;5.186;2023-07-16T14:51:40;3.73;;;1.77;;
18726;SDS011;9492;51.888;5.186;2023-07-16T14:54:07;3.93;;;1.50;;
18726;SDS011;9492;51.888;5.186;2023-07-16T14:56:33;2.47;;;1.70;;
18726;SDS011;9492;51.888;5.186;2023-07-16T14:58:59;2.00;;;1.43;;
18726;SDS011;9492;51.888;5.186;2023-07-16T15:01:25;2.50;;;1.37;;
18726;SDS011;9492;51.888;5.186;2023-07-16T15:03:51;5.17;;;1.87;;
18726;SDS011;9492;51.888;5.186;2023-07-16T15:06:17;1.90;;;1.40;;
18726;SDS011;9492;51.888;5.186;2023-07-16T15:08:43;2.37;;;1.70;;
18726;SDS011;9492;51.888;5.186;2023-07-16T15:11:09;4.90;;;2.10;;